sensor_id;sensor_type;location;lat;lon;timestamp;P1;durP1;ratioP1;P2;durP2;ratioP2
36815;SDS011;71982;52.294;6.760;2024-03-08T00:00:08;46.20;;;23.33;;
36815;SDS011;71982;52.294;6.760;2024-03-08T00:02:37;45.35;;;25.17;;
36815;SDS011;71982;52.294;6.760;2024-03-08T00:05:04;44.35;;;24.10;;
36815;SDS011;71982;52.294;6.760;2024-03-08T00:07:34;42.47;;;24.00;;
36815;SDS011;71982;52.294;6.760;2024-03-08T00:10:03;45.22;;;23.55;;
36815;SDS011;71982;52.294;6.760;2024-03-08T00:12:31;43.63;;;22.42;;
36815;SDS011;71982;52.294;6.760;2024-03-08T00:14:58;45.28;;;22.80;;
36815;SDS011;71982;52.294;6.760;2024-03-08T00:17:25;44.42;;;23.58;;
36815;SDS011;71982;52.294;6.760;2024-03-08T00:19:52;42.58;;;23.42;;
36815;SDS011;71982;52.294;6.760;2024-03-08T00:22:19;57.05;;;27.00;;
36815;SDS011;71982;52.294;6.760;2024-03-08T00:24:47;39.72;;;22.58;;
36815;SDS011;71982;52.294;6.760;2024-03-08T00:27:17;44.08;;;23.65;;
36815;SDS011;71982;52.294;6.760;2024-03-08T00:29:46;48.90;;;24.60;;
36815;SDS011;71982;52.294;6.760;2024-03-08T00:32:13;43.03;;;23.85;;
36815;SDS011;71982;52.294;6.760;2024-03-08T00:34:40;45.28;;;24.05;;
36815;SDS011;71982;52.294;6.760;2024-03-08T00:37:06;40.17;;;23.63;;
36815;SDS011;71982;52.294;6.760;2024-03-08T00:39:37;46.05;;;23.98;;
36815;SDS011;71982;52.294;6.760;2024-03-08T00:42:04;43.85;;;24.40;;
36815;SDS011;71982;52.294;6.760;2024-03-08T00:44:32;43.10;;;23.88;;
36815;SDS011;71982;52.294;6.760;2024-03-08T00:46:59;53.65;;;26.95;;
36815;SDS011;71982;52.294;6.760;2024-03-08T00:49:30;49.53;;;25.77;;
36815;SDS011;71982;52.294;6.760;2024-03-08T00:51:56;49.00;;;25.50;;
36815;SDS011;71982;52.294;6.760;2024-03-08T00:54:34;43.90;;;24.80;;
36815;SDS011;71982;52.294;6.760;2024-03-08T00:57:01;48.25;;;25.58;;
36815;SDS011;71982;52.294;6.760;2024-03-08T00:59:28;47.15;;;25.15;;
36815;SDS011;71982;52.294;6.760;2024-03-08T01:02:00;51.97;;;26.23;;
36815;SDS011;71982;52.294;6.760;2024-03-08T01:04:27;47.67;;;26.40;;
36815;SDS011;71982;52.294;6.760;2024-03-08T01:06:55;48.58;;;27.08;;
36815;SDS011;71982;52.294;6.760;2024-03-08T01:09:22;42.22;;;25.48;;
36815;SDS011;71982;52.294;6.760;2024-03-08T01:11:49;46.38;;;25.73;;
36815;SDS011;71982;52.294;6.760;2024-03-08T01:14:16;39.50;;;24.50;;
36815;SDS011;71982;52.294;6.760;2024-03-08T01:16:44;45.90;;;25.30;;
36815;SDS011;71982;52.294;6.760;2024-03-08T01:19:11;42.50;;;23.35;;
36815;SDS011;71982;52.294;6.760;2024-03-08T01:21:38;46.75;;;25.52;;
36815;SDS011;71982;52.294;6.760;2024-03-08T01:24:05;42.13;;;24.20;;
36815;SDS011;71982;52.294;6.760;2024-03-08T01:26:35;42.08;;;24.40;;
36815;SDS011;71982;52.294;6.760;2024-03-08T01:29:02;42.55;;;23.67;;
36815;SDS011;71982;52.294;6.760;2024-03-08T01:31:32;50.08;;;24.85;;
36815;SDS011;71982;52.294;6.760;2024-03-08T01:34:00;41.08;;;23.27;;
36815;SDS011;71982;52.294;6.760;2024-03-08T01:36:27;41.72;;;22.95;;
36815;SDS011;71982;52.294;6.760;2024-03-08T01:38:57;41.25;;;23.83;;
36815;SDS011;71982;52.294;6.760;2024-03-08T01:41:24;45.55;;;24.55;;
36815;SDS011;71982;52.294;6.760;2024-03-08T01:43:54;44.72;;;25.48;;
36815;SDS011;71982;52.294;6.760;2024-03-08T01:46:21;46.13;;;25.63;;
36815;SDS011;71982;52.294;6.760;2024-03-08T01:48:48;44.20;;;24.33;;
36815;SDS011;71982;52.294;6.760;2024-03-08T01:51:18;42.42;;;24.25;;
36815;SDS011;71982;52.294;6.760;2024-03-08T01:53:46;42.47;;;25.13;;
36815;SDS011;71982;52.294;6.760;2024-03-08T01:56:14;40.13;;;23.95;;
36815;SDS011;71982;52.294;6.760;2024-03-08T01:58:41;41.55;;;23.52;;
36815;SDS011;71982;52.294;6.760;2024-03-08T02:01:09;40.13;;;23.77;;
36815;SDS011;71982;52.294;6.760;2024-03-08T02:03:39;42.42;;;23.48;;
36815;SDS011;71982;52.294;6.760;2024-03-08T02:06:09;42.00;;;23.25;;
36815;SDS011;71982;52.294;6.760;2024-03-08T02:08:40;38.40;;;23.00;;
36815;SDS011;71982;52.294;6.760;2024-03-08T02:11:09;43.92;;;24.17;;
36815;SDS011;71982;52.294;6.760;2024-03-08T02:13:36;44.70;;;24.33;;
36815;SDS011;71982;52.294;6.760;2024-03-08T02:16:06;42.92;;;24.15;;
36815;SDS011;71982;52.294;6.760;2024-03-08T02:18:33;47.80;;;24.48;;
36815;SDS011;71982;52.294;6.760;2024-03-08T02:21:03;46.70;;;25.05;;
36815;SDS011;71982;52.294;6.760;2024-03-08T02:23:30;41.75;;;24.60;;
36815;SDS011;71982;52.294;6.760;2024-03-08T02:25:58;42.10;;;24.75;;
36815;SDS011;71982;52.294;6.760;2024-03-08T02:28:25;39.38;;;21.80;;
36815;SDS011;71982;52.294;6.760;2024-03-08T02:30:55;42.95;;;23.85;;
36815;SDS011;71982;52.294;6.760;2024-03-08T02:33:22;47.75;;;24.33;;
36815;SDS011;71982;52.294;6.760;2024-03-08T02:35:49;40.08;;;23.80;;
36815;SDS011;71982;52.294;6.760;2024-03-08T02:38:18;38.90;;;24.92;;
36815;SDS011;71982;52.294;6.760;2024-03-08T02:40:47;40.13;;;22.52;;
36815;SDS011;71982;52.294;6.760;2024-03-08T02:43:15;41.05;;;24.42;;
36815;SDS011;71982;52.294;6.760;2024-03-08T02:45:43;39.72;;;24.42;;
36815;SDS011;71982;52.294;6.760;2024-03-08T02:48:11;42.13;;;25.00;;
36815;SDS011;71982;52.294;6.760;2024-03-08T02:50:38;45.30;;;24.70;;
36815;SDS011;71982;52.294;6.760;2024-03-08T02:53:07;47.15;;;25.35;;
36815;SDS011;71982;52.294;6.760;2024-03-08T02:55:36;45.53;;;25.20;;
36815;SDS011;71982;52.294;6.760;2024-03-08T02:58:03;44.28;;;23.92;;
36815;SDS011;71982;52.294;6.760;2024-03-08T03:00:30;41.90;;;24.60;;
36815;SDS011;71982;52.294;6.760;2024-03-08T03:02:57;38.28;;;23.75;;
36815;SDS011;71982;52.294;6.760;2024-03-08T03:05:24;41.90;;;24.27;;
36815;SDS011;71982;52.294;6.760;2024-03-08T03:07:52;50.53;;;25.35;;
36815;SDS011;71982;52.294;6.760;2024-03-08T03:10:19;42.75;;;25.77;;
36815;SDS011;71982;52.294;6.760;2024-03-08T03:12:48;42.25;;;24.48;;
36815;SDS011;71982;52.294;6.760;2024-03-08T03:15:15;44.38;;;24.73;;
36815;SDS011;71982;52.294;6.760;2024-03-08T03:17:45;39.70;;;25.00;;
36815;SDS011;71982;52.294;6.760;2024-03-08T03:20:13;40.63;;;23.70;;
36815;SDS011;71982;52.294;6.760;2024-03-08T03:22:47;43.17;;;25.58;;
36815;SDS011;71982;52.294;6.760;2024-03-08T03:25:17;43.08;;;23.20;;
36815;SDS011;71982;52.294;6.760;2024-03-08T03:27:51;41.63;;;24.65;;
36815;SDS011;71982;52.294;6.760;2024-03-08T03:30:21;39.70;;;23.75;;
36815;SDS011;71982;52.294;6.760;2024-03-08T03:32:51;46.33;;;25.90;;
36815;SDS011;71982;52.294;6.760;2024-03-08T03:35:19;42.92;;;24.38;;
36815;SDS011;71982;52.294;6.760;2024-03-08T03:37:47;43.03;;;25.48;;
36815;SDS011;71982;52.294;6.760;2024-03-08T03:40:29;40.03;;;23.85;;
36815;SDS011;71982;52.294;6.760;2024-03-08T03:42:58;47.35;;;25.50;;
36815;SDS011;71982;52.294;6.760;2024-03-08T03:45:24;43.30;;;24.38;;
36815;SDS011;71982;52.294;6.760;2024-03-08T03:47:52;42.40;;;26.25;;
36815;SDS011;71982;52.294;6.760;2024-03-08T03:50:19;42.55;;;26.10;;
36815;SDS011;71982;52.294;6.760;2024-03-08T03:52:46;40.03;;;23.88;;
36815;SDS011;71982;52.294;6.760;2024-03-08T03:55:12;47.78;;;27.38;;
36815;SDS011;71982;52.294;6.760;2024-03-08T03:57:40;46.33;;;25.67;;
36815;SDS011;71982;52.294;6.760;2024-03-08T04:00:13;45.13;;;24.80;;
36815;SDS011;71982;52.294;6.760;2024-03-08T04:02:40;45.00;;;24.30;;
36815;SDS011;71982;52.294;6.760;2024-03-08T04:05:08;40.00;;;24.73;;
36815;SDS011;71982;52.294;6.760;2024-03-08T04:07:36;42.65;;;26.98;;
36815;SDS011;71982;52.294;6.760;2024-03-08T04:10:04;42.85;;;25.65;;
36815;SDS011;71982;52.294;6.760;2024-03-08T04:12:33;44.17;;;25.55;;
36815;SDS011;71982;52.294;6.760;2024-03-08T04:15:00;44.72;;;25.42;;
36815;SDS011;71982;52.294;6.760;2024-03-08T04:17:34;41.00;;;24.77;;
36815;SDS011;71982;52.294;6.760;2024-03-08T04:20:02;44.13;;;26.88;;
36815;SDS011;71982;52.294;6.760;2024-03-08T04:22:34;43.97;;;25.23;;
36815;SDS011;71982;52.294;6.760;2024-03-08T04:25:01;41.80;;;25.13;;
36815;SDS011;71982;52.294;6.760;2024-03-08T04:27:28;41.17;;;24.95;;
36815;SDS011;71982;52.294;6.760;2024-03-08T04:29:59;43.08;;;26.42;;
36815;SDS011;71982;52.294;6.760;2024-03-08T04:32:26;42.05;;;25.02;;
36815;SDS011;71982;52.294;6.760;2024-03-08T04:34:59;40.80;;;24.15;;
36815;SDS011;71982;52.294;6.760;2024-03-08T04:37:30;43.28;;;26.42;;
36815;SDS011;71982;52.294;6.760;2024-03-08T04:39:57;42.33;;;25.35;;
36815;SDS011;71982;52.294;6.760;2024-03-08T04:42:25;47.40;;;27.17;;
36815;SDS011;71982;52.294;6.760;2024-03-08T04:44:53;44.90;;;26.88;;
36815;SDS011;71982;52.294;6.760;2024-03-08T04:47:20;42.80;;;25.65;;
36815;SDS011;71982;52.294;6.760;2024-03-08T04:49:47;45.70;;;28.25;;
36815;SDS011;71982;52.294;6.760;2024-03-08T04:52:16;43.70;;;26.05;;
36815;SDS011;71982;52.294;6.760;2024-03-08T04:54:43;42.35;;;25.70;;
36815;SDS011;71982;52.294;6.760;2024-03-08T04:57:10;43.88;;;27.58;;
36815;SDS011;71982;52.294;6.760;2024-03-08T04:59:37;47.60;;;27.75;;
36815;SDS011;71982;52.294;6.760;2024-03-08T05:02:04;46.28;;;28.08;;
36815;SDS011;71982;52.294;6.760;2024-03-08T05:04:35;46.72;;;26.60;;
36815;SDS011;71982;52.294;6.760;2024-03-08T05:07:02;50.85;;;28.40;;
36815;SDS011;71982;52.294;6.760;2024-03-08T05:09:33;45.90;;;27.58;;
36815;SDS011;71982;52.294;6.760;2024-03-08T05:14:28;45.05;;;26.35;;
36815;SDS011;71982;52.294;6.760;2024-03-08T05:16:55;47.08;;;26.95;;
36815;SDS011;71982;52.294;6.760;2024-03-08T05:19:21;47.65;;;27.33;;
36815;SDS011;71982;52.294;6.760;2024-03-08T05:21:49;46.28;;;27.05;;
36815;SDS011;71982;52.294;6.760;2024-03-08T05:24:16;48.20;;;27.88;;
36815;SDS011;71982;52.294;6.760;2024-03-08T05:26:45;46.95;;;27.70;;
36815;SDS011;71982;52.294;6.760;2024-03-08T05:29:12;50.08;;;28.70;;
36815;SDS011;71982;52.294;6.760;2024-03-08T05:31:43;47.53;;;28.70;;
36815;SDS011;71982;52.294;6.760;2024-03-08T05:34:12;47.80;;;28.20;;
36815;SDS011;71982;52.294;6.760;2024-03-08T05:36:40;49.47;;;29.23;;
36815;SDS011;71982;52.294;6.760;2024-03-08T05:39:09;46.72;;;27.80;;
36815;SDS011;71982;52.294;6.760;2024-03-08T05:41:36;55.08;;;29.50;;
36815;SDS011;71982;52.294;6.760;2024-03-08T05:44:05;49.20;;;29.33;;
36815;SDS011;71982;52.294;6.760;2024-03-08T05:46:35;49.70;;;28.85;;
36815;SDS011;71982;52.294;6.760;2024-03-08T05:49:02;47.63;;;28.85;;
36815;SDS011;71982;52.294;6.760;2024-03-08T05:51:30;50.63;;;29.63;;
36815;SDS011;71982;52.294;6.760;2024-03-08T05:53:59;48.55;;;28.75;;
36815;SDS011;71982;52.294;6.760;2024-03-08T05:56:27;53.80;;;30.33;;
36815;SDS011;71982;52.294;6.760;2024-03-08T05:58:55;46.13;;;29.17;;
36815;SDS011;71982;52.294;6.760;2024-03-08T06:01:24;51.40;;;30.00;;
36815;SDS011;71982;52.294;6.760;2024-03-08T06:03:51;49.55;;;30.15;;
36815;SDS011;71982;52.294;6.760;2024-03-08T06:06:20;53.47;;;29.65;;
36815;SDS011;71982;52.294;6.760;2024-03-08T06:08:47;49.22;;;28.95;;
36815;SDS011;71982;52.294;6.760;2024-03-08T06:11:15;46.22;;;28.65;;
36815;SDS011;71982;52.294;6.760;2024-03-08T06:13:43;50.05;;;28.05;;
36815;SDS011;71982;52.294;6.760;2024-03-08T06:16:10;46.08;;;27.73;;
36815;SDS011;71982;52.294;6.760;2024-03-08T06:18:39;50.58;;;29.60;;
36815;SDS011;71982;52.294;6.760;2024-03-08T06:21:06;44.80;;;26.85;;
36815;SDS011;71982;52.294;6.760;2024-03-08T06:23:36;46.63;;;28.80;;
36815;SDS011;71982;52.294;6.760;2024-03-08T06:26:04;50.70;;;29.77;;
36815;SDS011;71982;52.294;6.760;2024-03-08T06:28:31;48.53;;;29.50;;
36815;SDS011;71982;52.294;6.760;2024-03-08T06:30:59;49.58;;;28.50;;
36815;SDS011;71982;52.294;6.760;2024-03-08T06:33:30;50.05;;;29.70;;
36815;SDS011;71982;52.294;6.760;2024-03-08T06:36:01;50.60;;;29.95;;
36815;SDS011;71982;52.294;6.760;2024-03-08T06:38:28;47.50;;;28.58;;
36815;SDS011;71982;52.294;6.760;2024-03-08T06:40:56;45.83;;;27.17;;
36815;SDS011;71982;52.294;6.760;2024-03-08T06:43:23;45.80;;;26.85;;
36815;SDS011;71982;52.294;6.760;2024-03-08T06:45:57;48.53;;;27.38;;
36815;SDS011;71982;52.294;6.760;2024-03-08T06:48:25;43.00;;;25.50;;
36815;SDS011;71982;52.294;6.760;2024-03-08T06:50:51;47.60;;;27.35;;
36815;SDS011;71982;52.294;6.760;2024-03-08T06:53:20;44.40;;;26.65;;
36815;SDS011;71982;52.294;6.760;2024-03-08T06:55:47;50.42;;;27.05;;
36815;SDS011;71982;52.294;6.760;2024-03-08T06:58:14;40.65;;;24.77;;
36815;SDS011;71982;52.294;6.760;2024-03-08T07:00:41;43.75;;;25.98;;
36815;SDS011;71982;52.294;6.760;2024-03-08T07:03:09;44.55;;;26.17;;
36815;SDS011;71982;52.294;6.760;2024-03-08T07:05:37;45.40;;;26.13;;
36815;SDS011;71982;52.294;6.760;2024-03-08T07:08:05;51.65;;;28.27;;
36815;SDS011;71982;52.294;6.760;2024-03-08T07:10:35;44.92;;;25.80;;
36815;SDS011;71982;52.294;6.760;2024-03-08T07:13:03;45.58;;;28.02;;
36815;SDS011;71982;52.294;6.760;2024-03-08T07:15:30;43.40;;;26.45;;
36815;SDS011;71982;52.294;6.760;2024-03-08T07:17:57;44.80;;;26.63;;
36815;SDS011;71982;52.294;6.760;2024-03-08T07:20:24;42.08;;;26.20;;
36815;SDS011;71982;52.294;6.760;2024-03-08T07:22:51;43.00;;;26.13;;
36815;SDS011;71982;52.294;6.760;2024-03-08T07:25:19;43.85;;;26.13;;
36815;SDS011;71982;52.294;6.760;2024-03-08T07:27:48;44.30;;;25.98;;
36815;SDS011;71982;52.294;6.760;2024-03-08T07:30:19;49.85;;;26.73;;
36815;SDS011;71982;52.294;6.760;2024-03-08T07:33:05;47.45;;;26.10;;
36815;SDS011;71982;52.294;6.760;2024-03-08T07:35:32;46.95;;;25.48;;
36815;SDS011;71982;52.294;6.760;2024-03-08T07:38:02;40.80;;;24.65;;
36815;SDS011;71982;52.294;6.760;2024-03-08T07:40:30;44.33;;;26.25;;
36815;SDS011;71982;52.294;6.760;2024-03-08T07:43:04;47.47;;;25.65;;
36815;SDS011;71982;52.294;6.760;2024-03-08T07:45:31;40.45;;;24.88;;
36815;SDS011;71982;52.294;6.760;2024-03-08T07:47:58;40.92;;;24.27;;
36815;SDS011;71982;52.294;6.760;2024-03-08T07:50:25;44.03;;;24.60;;
36815;SDS011;71982;52.294;6.760;2024-03-08T07:52:53;47.25;;;25.02;;
36815;SDS011;71982;52.294;6.760;2024-03-08T07:55:20;42.17;;;24.60;;
36815;SDS011;71982;52.294;6.760;2024-03-08T07:57:49;47.17;;;24.92;;
36815;SDS011;71982;52.294;6.760;2024-03-08T08:00:17;40.33;;;23.20;;
36815;SDS011;71982;52.294;6.760;2024-03-08T08:02:45;45.25;;;23.55;;
36815;SDS011;71982;52.294;6.760;2024-03-08T08:05:12;41.13;;;25.02;;
36815;SDS011;71982;52.294;6.760;2024-03-08T08:07:39;42.13;;;24.75;;
36815;SDS011;71982;52.294;6.760;2024-03-08T08:10:08;42.13;;;23.75;;
36815;SDS011;71982;52.294;6.760;2024-03-08T08:12:41;35.97;;;22.63;;
36815;SDS011;71982;52.294;6.760;2024-03-08T08:15:08;39.30;;;23.48;;
36815;SDS011;71982;52.294;6.760;2024-03-08T08:17:37;45.05;;;24.52;;
36815;SDS011;71982;52.294;6.760;2024-03-08T08:20:04;40.70;;;24.02;;
36815;SDS011;71982;52.294;6.760;2024-03-08T08:22:32;40.78;;;25.02;;
36815;SDS011;71982;52.294;6.760;2024-03-08T08:24:59;41.65;;;24.50;;
36815;SDS011;71982;52.294;6.760;2024-03-08T08:27:26;35.50;;;22.92;;
36815;SDS011;71982;52.294;6.760;2024-03-08T08:29:53;37.33;;;22.98;;
36815;SDS011;71982;52.294;6.760;2024-03-08T08:32:20;36.30;;;21.83;;
36815;SDS011;71982;52.294;6.760;2024-03-08T08:34:49;35.60;;;21.63;;
36815;SDS011;71982;52.294;6.760;2024-03-08T08:37:16;34.45;;;20.83;;
36815;SDS011;71982;52.294;6.760;2024-03-08T08:39:42;34.38;;;21.77;;
36815;SDS011;71982;52.294;6.760;2024-03-08T08:42:09;34.05;;;21.33;;
36815;SDS011;71982;52.294;6.760;2024-03-08T08:44:36;36.40;;;22.27;;
36815;SDS011;71982;52.294;6.760;2024-03-08T08:47:03;34.67;;;21.75;;
36815;SDS011;71982;52.294;6.760;2024-03-08T08:49:30;34.70;;;21.63;;
36815;SDS011;71982;52.294;6.760;2024-03-08T08:51:58;33.53;;;21.27;;
36815;SDS011;71982;52.294;6.760;2024-03-08T08:54:26;35.38;;;22.38;;
36815;SDS011;71982;52.294;6.760;2024-03-08T08:56:53;33.90;;;22.33;;
36815;SDS011;71982;52.294;6.760;2024-03-08T08:59:20;34.85;;;22.10;;
36815;SDS011;71982;52.294;6.760;2024-03-08T09:01:49;36.80;;;22.58;;
36815;SDS011;71982;52.294;6.760;2024-03-08T09:04:18;35.55;;;21.80;;
36815;SDS011;71982;52.294;6.760;2024-03-08T09:06:46;35.83;;;22.23;;
36815;SDS011;71982;52.294;6.760;2024-03-08T09:09:15;37.08;;;23.10;;
36815;SDS011;71982;52.294;6.760;2024-03-08T09:11:42;35.75;;;22.10;;
36815;SDS011;71982;52.294;6.760;2024-03-08T09:14:09;32.30;;;21.88;;
36815;SDS011;71982;52.294;6.760;2024-03-08T09:16:37;36.50;;;22.95;;
36815;SDS011;71982;52.294;6.760;2024-03-08T09:19:04;38.30;;;22.77;;
36815;SDS011;71982;52.294;6.760;2024-03-08T09:21:32;36.25;;;22.65;;
36815;SDS011;71982;52.294;6.760;2024-03-08T09:23:59;35.72;;;23.73;;
36815;SDS011;71982;52.294;6.760;2024-03-08T09:26:28;32.95;;;20.58;;
36815;SDS011;71982;52.294;6.760;2024-03-08T09:28:55;34.70;;;21.98;;
36815;SDS011;71982;52.294;6.760;2024-03-08T09:31:21;34.88;;;21.98;;
36815;SDS011;71982;52.294;6.760;2024-03-08T09:33:48;33.47;;;21.58;;
36815;SDS011;71982;52.294;6.760;2024-03-08T09:36:15;35.92;;;21.90;;
36815;SDS011;71982;52.294;6.760;2024-03-08T09:38:42;34.17;;;23.33;;
36815;SDS011;71982;52.294;6.760;2024-03-08T09:41:09;38.85;;;22.65;;
36815;SDS011;71982;52.294;6.760;2024-03-08T09:43:39;36.08;;;21.10;;
36815;SDS011;71982;52.294;6.760;2024-03-08T09:46:06;39.55;;;23.30;;
36815;SDS011;71982;52.294;6.760;2024-03-08T09:48:34;33.03;;;21.95;;
36815;SDS011;71982;52.294;6.760;2024-03-08T09:51:01;31.30;;;21.80;;
36815;SDS011;71982;52.294;6.760;2024-03-08T09:53:32;32.85;;;21.27;;
36815;SDS011;71982;52.294;6.760;2024-03-08T09:56:02;30.95;;;21.55;;
36815;SDS011;71982;52.294;6.760;2024-03-08T09:58:31;34.95;;;21.58;;
36815;SDS011;71982;52.294;6.760;2024-03-08T10:01:20;37.53;;;22.48;;
36815;SDS011;71982;52.294;6.760;2024-03-08T10:03:47;33.22;;;22.25;;
36815;SDS011;71982;52.294;6.760;2024-03-08T10:06:15;32.17;;;21.27;;
36815;SDS011;71982;52.294;6.760;2024-03-08T10:08:42;33.63;;;21.40;;
36815;SDS011;71982;52.294;6.760;2024-03-08T10:11:09;38.50;;;23.33;;
36815;SDS011;71982;52.294;6.760;2024-03-08T10:13:36;34.35;;;20.73;;
36815;SDS011;71982;52.294;6.760;2024-03-08T10:16:05;33.33;;;21.23;;
36815;SDS011;71982;52.294;6.760;2024-03-08T10:18:34;32.30;;;20.02;;
36815;SDS011;71982;52.294;6.760;2024-03-08T10:21:02;32.55;;;20.67;;
36815;SDS011;71982;52.294;6.760;2024-03-08T10:23:30;36.42;;;21.80;;
36815;SDS011;71982;52.294;6.760;2024-03-08T10:25:59;33.55;;;21.83;;
36815;SDS011;71982;52.294;6.760;2024-03-08T10:28:36;34.28;;;22.10;;
36815;SDS011;71982;52.294;6.760;2024-03-08T10:31:03;32.80;;;20.52;;
36815;SDS011;71982;52.294;6.760;2024-03-08T10:33:35;35.22;;;20.63;;
36815;SDS011;71982;52.294;6.760;2024-03-08T10:36:05;32.13;;;20.52;;
36815;SDS011;71982;52.294;6.760;2024-03-08T10:38:37;30.52;;;19.98;;
36815;SDS011;71982;52.294;6.760;2024-03-08T10:41:05;32.58;;;20.55;;
36815;SDS011;71982;52.294;6.760;2024-03-08T10:43:36;32.53;;;21.33;;
36815;SDS011;71982;52.294;6.760;2024-03-08T10:46:21;32.55;;;21.70;;
36815;SDS011;71982;52.294;6.760;2024-03-08T10:49:01;37.45;;;21.10;;
36815;SDS011;71982;52.294;6.760;2024-03-08T10:51:34;32.53;;;21.30;;
36815;SDS011;71982;52.294;6.760;2024-03-08T10:54:03;33.80;;;22.20;;
36815;SDS011;71982;52.294;6.760;2024-03-08T10:56:30;39.83;;;22.02;;
36815;SDS011;71982;52.294;6.760;2024-03-08T10:58:57;35.53;;;22.55;;
36815;SDS011;71982;52.294;6.760;2024-03-08T11:01:24;41.20;;;23.70;;
36815;SDS011;71982;52.294;6.760;2024-03-08T11:03:52;32.72;;;22.55;;
36815;SDS011;71982;52.294;6.760;2024-03-08T11:06:29;32.70;;;22.45;;
36815;SDS011;71982;52.294;6.760;2024-03-08T11:14:45;30.63;;;20.73;;
36815;SDS011;71982;52.294;6.760;2024-03-08T11:17:14;31.92;;;21.08;;
36815;SDS011;71982;52.294;6.760;2024-03-08T11:19:45;29.92;;;19.65;;
36815;SDS011;71982;52.294;6.760;2024-03-08T11:22:26;30.67;;;20.75;;
36815;SDS011;71982;52.294;6.760;2024-03-08T11:24:58;27.80;;;19.67;;
36815;SDS011;71982;52.294;6.760;2024-03-08T11:27:28;30.73;;;19.42;;
36815;SDS011;71982;52.294;6.760;2024-03-08T11:30:02;28.45;;;19.27;;
36815;SDS011;71982;52.294;6.760;2024-03-08T11:32:36;28.80;;;19.27;;
36815;SDS011;71982;52.294;6.760;2024-03-08T11:35:05;28.90;;;19.48;;
36815;SDS011;71982;52.294;6.760;2024-03-08T11:37:35;38.80;;;18.52;;
36815;SDS011;71982;52.294;6.760;2024-03-08T11:40:06;30.98;;;19.58;;
36815;SDS011;71982;52.294;6.760;2024-03-08T11:42:44;27.65;;;18.13;;
36815;SDS011;71982;52.294;6.760;2024-03-08T11:45:13;26.50;;;17.67;;
36815;SDS011;71982;52.294;6.760;2024-03-08T11:47:41;25.70;;;16.77;;
36815;SDS011;71982;52.294;6.760;2024-03-08T11:50:11;24.10;;;15.75;;
36815;SDS011;71982;52.294;6.760;2024-03-08T11:52:43;24.20;;;16.05;;
36815;SDS011;71982;52.294;6.760;2024-03-08T11:55:11;25.35;;;17.25;;
36815;SDS011;71982;52.294;6.760;2024-03-08T11:57:38;24.02;;;16.88;;
36815;SDS011;71982;52.294;6.760;2024-03-08T12:00:14;23.88;;;16.33;;
36815;SDS011;71982;52.294;6.760;2024-03-08T12:03:00;25.02;;;17.38;;
36815;SDS011;71982;52.294;6.760;2024-03-08T12:05:28;25.75;;;16.88;;
36815;SDS011;71982;52.294;6.760;2024-03-08T12:08:01;19.50;;;14.67;;
36815;SDS011;71982;52.294;6.760;2024-03-08T12:10:30;20.98;;;15.80;;
36815;SDS011;71982;52.294;6.760;2024-03-08T12:13:00;20.33;;;15.00;;
36815;SDS011;71982;52.294;6.760;2024-03-08T12:15:28;18.90;;;14.45;;
36815;SDS011;71982;52.294;6.760;2024-03-08T12:18:02;22.20;;;15.23;;
36815;SDS011;71982;52.294;6.760;2024-03-08T12:20:32;23.80;;;15.00;;
36815;SDS011;71982;52.294;6.760;2024-03-08T12:22:59;21.85;;;15.32;;
36815;SDS011;71982;52.294;6.760;2024-03-08T12:25:30;19.10;;;14.23;;
36815;SDS011;71982;52.294;6.760;2024-03-08T12:28:06;22.83;;;15.60;;
36815;SDS011;71982;52.294;6.760;2024-03-08T12:30:43;20.45;;;14.10;;
36815;SDS011;71982;52.294;6.760;2024-03-08T12:33:13;19.48;;;13.75;;
36815;SDS011;71982;52.294;6.760;2024-03-08T12:35:40;18.40;;;13.68;;
36815;SDS011;71982;52.294;6.760;2024-03-08T12:38:09;16.25;;;12.13;;
36815;SDS011;71982;52.294;6.760;2024-03-08T12:40:36;20.10;;;13.60;;
36815;SDS011;71982;52.294;6.760;2024-03-08T12:43:09;17.83;;;13.10;;
36815;SDS011;71982;52.294;6.760;2024-03-08T12:45:40;24.33;;;14.30;;
36815;SDS011;71982;52.294;6.760;2024-03-08T12:48:12;18.05;;;12.52;;
36815;SDS011;71982;52.294;6.760;2024-03-08T12:50:40;20.73;;;12.13;;
36815;SDS011;71982;52.294;6.760;2024-03-08T12:53:10;20.00;;;12.30;;
36815;SDS011;71982;52.294;6.760;2024-03-08T12:55:37;16.52;;;12.40;;
36815;SDS011;71982;52.294;6.760;2024-03-08T12:58:05;18.27;;;13.23;;
36815;SDS011;71982;52.294;6.760;2024-03-08T13:00:33;19.15;;;13.77;;
36815;SDS011;71982;52.294;6.760;2024-03-08T13:03:01;18.98;;;14.70;;
36815;SDS011;71982;52.294;6.760;2024-03-08T13:05:28;20.23;;;14.18;;
36815;SDS011;71982;52.294;6.760;2024-03-08T13:07:58;16.65;;;12.63;;
36815;SDS011;71982;52.294;6.760;2024-03-08T13:10:26;15.55;;;11.27;;
36815;SDS011;71982;52.294;6.760;2024-03-08T13:12:56;16.75;;;12.80;;
36815;SDS011;71982;52.294;6.760;2024-03-08T13:15:26;18.13;;;12.90;;
36815;SDS011;71982;52.294;6.760;2024-03-08T13:17:54;22.08;;;13.25;;
36815;SDS011;71982;52.294;6.760;2024-03-08T13:20:22;15.65;;;12.48;;
36815;SDS011;71982;52.294;6.760;2024-03-08T13:22:49;16.23;;;11.80;;
36815;SDS011;71982;52.294;6.760;2024-03-08T13:25:16;18.67;;;13.07;;
36815;SDS011;71982;52.294;6.760;2024-03-08T13:27:44;16.77;;;12.75;;
36815;SDS011;71982;52.294;6.760;2024-03-08T13:30:11;17.02;;;12.20;;
36815;SDS011;71982;52.294;6.760;2024-03-08T13:32:40;19.75;;;13.43;;
36815;SDS011;71982;52.294;6.760;2024-03-08T13:35:08;16.75;;;12.38;;
36815;SDS011;71982;52.294;6.760;2024-03-08T13:37:37;18.65;;;12.38;;
36815;SDS011;71982;52.294;6.760;2024-03-08T13:40:08;17.35;;;11.82;;
36815;SDS011;71982;52.294;6.760;2024-03-08T13:42:38;17.33;;;12.75;;
36815;SDS011;71982;52.294;6.760;2024-03-08T13:45:07;16.73;;;12.45;;
36815;SDS011;71982;52.294;6.760;2024-03-08T13:47:37;16.60;;;12.40;;
36815;SDS011;71982;52.294;6.760;2024-03-08T13:50:06;17.27;;;12.25;;
36815;SDS011;71982;52.294;6.760;2024-03-08T13:52:36;18.92;;;12.45;;
36815;SDS011;71982;52.294;6.760;2024-03-08T13:55:04;17.88;;;13.10;;
36815;SDS011;71982;52.294;6.760;2024-03-08T13:57:31;18.08;;;13.30;;
36815;SDS011;71982;52.294;6.760;2024-03-08T13:59:58;17.42;;;12.93;;
36815;SDS011;71982;52.294;6.760;2024-03-08T14:02:26;19.33;;;12.27;;
36815;SDS011;71982;52.294;6.760;2024-03-08T14:07:27;19.05;;;13.20;;
36815;SDS011;71982;52.294;6.760;2024-03-08T14:09:55;17.25;;;12.52;;
36815;SDS011;71982;52.294;6.760;2024-03-08T14:12:22;16.42;;;12.02;;
36815;SDS011;71982;52.294;6.760;2024-03-08T14:14:51;18.17;;;12.65;;
36815;SDS011;71982;52.294;6.760;2024-03-08T14:17:18;19.08;;;13.30;;
36815;SDS011;71982;52.294;6.760;2024-03-08T14:19:46;16.45;;;12.60;;
36815;SDS011;71982;52.294;6.760;2024-03-08T14:22:13;22.83;;;13.77;;
36815;SDS011;71982;52.294;6.760;2024-03-08T14:24:40;19.38;;;13.38;;
36815;SDS011;71982;52.294;6.760;2024-03-08T14:27:07;17.88;;;14.00;;
36815;SDS011;71982;52.294;6.760;2024-03-08T14:29:34;18.88;;;13.45;;
36815;SDS011;71982;52.294;6.760;2024-03-08T14:32:01;20.05;;;14.70;;
36815;SDS011;71982;52.294;6.760;2024-03-08T14:34:31;18.60;;;16.00;;
36815;SDS011;71982;52.294;6.760;2024-03-08T14:37:00;20.63;;;14.77;;
36815;SDS011;71982;52.294;6.760;2024-03-08T14:39:30;25.45;;;16.02;;